CheckWX is a tool to help pilots better visualize weather data.  It is not intended as a substitute for an official pre-flight weather briefing.

03:19:17 UTC

EHFZ METAR
F16-a Sea
F16-a Sea, The Netherlands
Current

24 mins ago

EHFZ 270255Z AUTO 25018KT 9999 FEW046 12/09 Q1005 W///H///
Observed
May-27 @ 02:55 UTC
Wind
  • 250° at 18 KTS
Visibility
10,000+ meters
Flight Rules
VFR
Cloud Levels
  • Few at 4,600' AGL
Temperature
12°C / 54°F
Dewpoint
C / 48°F
Humidity
82%
Altimeter
29.68" Hg
Pressure
1004.92 hPa
Previous

54 mins ago

EHFZ 270225Z AUTO 26017KT 9999 NSC 12/09 Q1005 W///H///
Observed
May-27 @ 02:25 UTC
Wind
  • 260° at 17 KTS
Visibility
10,000+ meters
Flight Rules
VFR
Cloud Levels
  • Clear skies
Temperature
12°C / 54°F
Dewpoint
C / 48°F
Humidity
82%
Altimeter
29.68" Hg
Pressure
1004.92 hPa
Previous

1 hour ago

EHFZ 270155Z AUTO 26016KT 9999 NSC 12/09 Q1005 W///H///
Observed
May-27 @ 01:55 UTC
Wind
  • 260° at 16 KTS
Visibility
10,000+ meters
Flight Rules
VFR
Cloud Levels
  • Clear skies
Temperature
12°C / 54°F
Dewpoint
C / 48°F
Humidity
82%
Altimeter
29.68" Hg
Pressure
1004.92 hPa